Home   Weather   Canada   Salluit   Past weeks
Flag for Canada

Past Weather in Salluit, Quebec, Canada — Yesterday and Last 2 Weeks

Currently: 48 °F. Sunny. (Weather station: Cape Dorset, Canada). See more current weather

Past Weather in Salluit — Graph

°F

Salluit Temperature Yesterday

Maximum temperature yesterday: 55 °F (at 4:00 pm)
Minimum temperature yesterday: 37 °F (at 12:00 am)
Average temperature yesterday: 46 °F

High & Low Weather Summary for the Past Weeks

 TemperatureHumidityPressure
High55 °F (Jul 12, 4:00 pm)100% (Jun 28, 2:00 am)29.76 "Hg (Jun 28, 2:00 am)
Low34 °F (Jun 28, 12:00 am)50% (Jul 1, 6:00 pm)29.17 "Hg (Jul 5, 5:11 am)
Average41 °F88%29.45 "Hg
* Reported Jun 27 11:00 pm — Jul 12 11:00 pm, Salluit. Weather by CustomWeather, © 2024

Note: Actual official high and low records may vary slightly from our data, if they occured in-between our weather recording intervals... More about our weather records

Salluit Weather History for the Previous 24 Hours

Scroll right to see more
 ConditionsComfort  
Time TempWeatherWind HumidityBarometerVisibility
11:00 pm
Fri, Jul 12
48 °FSunny.13 mph76%29.74 "Hg9 mi
10:00 pm50 °FSunny.15 mph71%29.72 "Hg9 mi
9:00 pm54 °FSunny.14 mph63%29.70 "Hg9 mi
8:00 pm54 °FSunny.14 mph63%29.68 "Hg9 mi
7:00 pm55 °FSunny.18 mph63%29.65 "Hg9 mi
6:00 pm55 °FSunny.23 mph63%29.63 "Hg9 mi
5:00 pm55 °FPassing clouds.18 mph63%29.61 "Hg15 mi
4:00 pm55 °FPassing clouds.21 mph59%29.59 "Hg15 mi
3:00 pm54 °FPassing clouds.20 mph63%29.57 "Hg15 mi
2:00 pm54 °FPassing clouds.20 mph63%29.53 "Hg15 mi
1:00 pm52 °FScattered clouds.18 mph67%29.49 "Hg15 mi
12:00 pm48 °FPartly sunny.21 mph82%29.47 "Hg15 mi
11:46 am48 °FBroken clouds.20 mph76%29.47 "Hg15 mi
11:00 am46 °FBroken clouds.16 mph93%29.46 "Hg15 mi
10:00 am43 °FPartly sunny.17 mph100%29.45 "Hg15 mi
9:36 am43 °FLow clouds.18 mph100%29.45 "Hg15 mi
9:00 am41 °FMostly cloudy.21 mph100%29.43 "Hg15 mi
8:00 am41 °FBroken clouds.22 mph100%29.40 "Hg15 mi
7:00 am41 °FPartly sunny.16 mph100%29.39 "Hg15 mi
6:00 am41 °FScattered clouds.13 mph93%29.38 "Hg9 mi
5:00 am41 °FMostly cloudy.10 mph100%29.36 "Hg9 mi
4:00 am43 °FPartly sunny.8 mph93%29.34 "Hg9 mi
3:00 am43 °FMostly cloudy.10 mph100%29.30 "Hg9 mi
2:26 am43 °FMostly cloudy.13 mph93%29.29 "Hg9 mi
2:15 am41 °FLight rain. Mostly cloudy.9 mph100%29.28 "Hg9 mi
2:06 am41 °FMostly cloudy.7 mph100%29.28 "Hg9 mi
1:47 am41 °FLight rain. Mostly cloudy.9 mph100%29.28 "Hg8 mi
1:20 am41 °FMostly cloudy.6 mphN/A29.27 "Hg9 mi
1:00 am39 °FLow clouds.3 mphN/A29.26 "Hg9 mi
12:42 am39 °FLow clouds.6 mphN/A29.25 "Hg6 mi
12:24 am39 °FDense fog.2 mphN/A29.25 "Hg1 mi
12:00 am37 °FDense fog.5 mphN/A29.24 "Hg0 mi
Weather by CustomWeather, © 2024

See weather overview